SHT1A EGCC-EGKK
Flight info
| Callsign | SHT1A |
|---|---|
| Flight time | 0h 51m |
| Altitude | 19000 |
| Route | LISTO L612 HON N859 KIDLI |
| Aircraft | A20N/M-SDE2E3FGHIRWXY/LB1 |
Departure
| Time | 2026-05-04 17:34 |
|---|---|
| Airport | Manchester Airport (EGCC) |
Arrival
| Time | 2026-05-04 18:26 |
|---|---|
| Airport | London Gatwick Airport (EGKK) |
| Time | Latitude | Longitude | Altitude | Speed | Heading |
|---|---|---|---|---|---|
| 2026-05-04 16:35 | 53.36814 | -2.28701 | 251 ft | 0 kts | 315° |
| 2026-05-04 17:21 | 53.36796 | -2.28666 | 251 ft | 2 kts | 314° |
| 2026-05-04 17:22 | 53.36785 | -2.28645 | 251 ft | 2 kts | 307° |
| 2026-05-04 17:22 | 53.36776 | -2.28622 | 251 ft | 2 kts | 302° |
| 2026-05-04 17:23 | 53.36763 | -2.28561 | 251 ft | 0 kts | 237° |
| 2026-05-04 17:24 | 53.36763 | -2.28563 | 251 ft | 1 kts | 236° |
| 2026-05-04 17:24 | 53.36675 | -2.28696 | 252 ft | 10 kts | 223° |
| 2026-05-04 17:25 | 53.36621 | -2.28779 | 253 ft | 10 kts | 202° |
| 2026-05-04 17:25 | 53.36507 | -2.28594 | 252 ft | 16 kts | 129° |
| 2026-05-04 17:26 | 53.36327 | -2.28284 | 251 ft | 21 kts | 133° |
| 2026-05-04 17:26 | 53.36160 | -2.27998 | 250 ft | 2 kts | 134° |
| 2026-05-04 17:27 | 53.35983 | -2.27831 | 249 ft | 20 kts | 187° |
| 2026-05-04 17:27 | 53.35800 | -2.27702 | 248 ft | 14 kts | 131° |
| 2026-05-04 17:28 | 53.35653 | -2.27568 | 246 ft | 13 kts | 144° |
| 2026-05-04 17:29 | 53.35489 | -2.27347 | 245 ft | 17 kts | 141° |
| 2026-05-04 17:29 | 53.35177 | -2.27240 | 264 ft | 10 kts | 193° |
| 2026-05-04 17:30 | 53.35144 | -2.27252 | 268 ft | 0 kts | 192° |
| 2026-05-04 17:31 | 53.35114 | -2.27262 | 270 ft | 7 kts | 191° |
| 2026-05-04 17:31 | 53.34975 | -2.27395 | 269 ft | 0 kts | 232° |
| 2026-05-04 17:34 | 53.34133 | -2.29132 | 401 ft | 154 kts | 235° |
| 2026-05-04 17:34 | 53.33502 | -2.30568 | 1274 ft | 155 kts | 238° |
| 2026-05-04 17:35 | 53.31677 | -2.34793 | 2769 ft | 204 kts | 253° |
| 2026-05-04 17:35 | 53.31783 | -2.38652 | 3684 ft | 235 kts | 285° |
| 2026-05-04 17:35 | 53.32095 | -2.41401 | 3939 ft | 256 kts | 269° |
| 2026-05-04 17:36 | 53.31643 | -2.44276 | 3998 ft | 262 kts | 240° |
| 2026-05-04 17:36 | 53.30406 | -2.46478 | 3998 ft | 263 kts | 212° |
| 2026-05-04 17:36 | 53.28697 | -2.47428 | 4001 ft | 265 kts | 184° |
| 2026-05-04 17:36 | 53.26892 | -2.46903 | 4001 ft | 268 kts | 155° |
| 2026-05-04 17:37 | 53.25343 | -2.45138 | 4004 ft | 269 kts | 140° |
| 2026-05-04 17:37 | 53.23928 | -2.43135 | 3998 ft | 265 kts | 141° |
| 2026-05-04 17:37 | 53.22452 | -2.41275 | 3999 ft | 267 kts | 145° |
| 2026-05-04 17:37 | 53.20904 | -2.39617 | 3999 ft | 267 kts | 149° |
| 2026-05-04 17:38 | 53.19288 | -2.38078 | 3999 ft | 267 kts | 151° |
| 2026-05-04 17:38 | 53.17651 | -2.36615 | 3999 ft | 267 kts | 152° |
| 2026-05-04 17:38 | 53.16001 | -2.35177 | 4000 ft | 267 kts | 152° |
| 2026-05-04 17:38 | 53.14365 | -2.33761 | 4002 ft | 268 kts | 152° |
| 2026-05-04 17:39 | 53.11018 | -2.30853 | 5144 ft | 273 kts | 152° |
| 2026-05-04 17:39 | 53.09352 | -2.29403 | 6417 ft | 265 kts | 152° |
| 2026-05-04 17:39 | 53.07778 | -2.28033 | 7776 ft | 250 kts | 153° |
| 2026-05-04 17:40 | 53.06248 | -2.26702 | 9013 ft | 245 kts | 153° |
| 2026-05-04 17:40 | 53.04724 | -2.25378 | 9937 ft | 250 kts | 153° |
| 2026-05-04 17:40 | 53.03173 | -2.24030 | 10784 ft | 253 kts | 153° |
| 2026-05-04 17:40 | 53.01627 | -2.22687 | 11653 ft | 255 kts | 153° |
| 2026-05-04 17:41 | 53.00043 | -2.21313 | 12511 ft | 258 kts | 153° |
| 2026-05-04 17:41 | 52.98441 | -2.19923 | 13354 ft | 261 kts | 153° |
| 2026-05-04 17:41 | 52.96826 | -2.18523 | 14193 ft | 263 kts | 154° |
| 2026-05-04 17:41 | 52.95193 | -2.17109 | 14943 ft | 266 kts | 154° |
| 2026-05-04 17:42 | 52.93544 | -2.15682 | 15707 ft | 268 kts | 154° |
| 2026-05-04 17:42 | 52.91881 | -2.14244 | 16465 ft | 271 kts | 154° |
| 2026-05-04 17:42 | 52.90242 | -2.12828 | 17194 ft | 273 kts | 154° |
| 2026-05-04 17:42 | 52.88530 | -2.11351 | 17943 ft | 276 kts | 154° |
| 2026-05-04 17:43 | 52.86818 | -2.09874 | 18616 ft | 280 kts | 154° |
| 2026-05-04 17:43 | 52.85045 | -2.08349 | 18931 ft | 297 kts | 153° |
| 2026-05-04 17:43 | 52.83140 | -2.06712 | 19038 ft | 321 kts | 153° |
| 2026-05-04 17:43 | 52.81083 | -2.04945 | 19054 ft | 346 kts | 153° |
| 2026-05-04 17:44 | 52.78867 | -2.03042 | 19053 ft | 371 kts | 153° |
| 2026-05-04 17:44 | 52.76541 | -2.01045 | 19050 ft | 379 kts | 153° |
| 2026-05-04 17:44 | 52.74203 | -1.99036 | 19044 ft | 378 kts | 154° |
| 2026-05-04 17:44 | 52.71881 | -1.97046 | 19047 ft | 375 kts | 154° |
| 2026-05-04 17:45 | 52.69598 | -1.95095 | 19044 ft | 376 kts | 154° |
| 2026-05-04 17:45 | 52.67321 | -1.93152 | 19045 ft | 376 kts | 154° |
| 2026-05-04 17:45 | 52.65178 | -1.91326 | 19042 ft | 376 kts | 154° |
| 2026-05-04 17:45 | 52.62857 | -1.89349 | 19043 ft | 376 kts | 154° |
| 2026-05-04 17:46 | 52.60531 | -1.87370 | 19048 ft | 376 kts | 154° |
| 2026-05-04 17:46 | 52.58206 | -1.85395 | 19047 ft | 376 kts | 154° |
| 2026-05-04 17:46 | 52.55882 | -1.83423 | 19047 ft | 376 kts | 154° |
| 2026-05-04 17:46 | 52.53610 | -1.81498 | 19047 ft | 376 kts | 154° |
| 2026-05-04 17:47 | 52.51440 | -1.79662 | 19048 ft | 376 kts | 154° |
| 2026-05-04 17:47 | 52.49053 | -1.77643 | 19049 ft | 382 kts | 155° |
| 2026-05-04 17:47 | 52.46620 | -1.75599 | 19049 ft | 404 kts | 154° |
| 2026-05-04 17:47 | 52.45883 | -1.74979 | 19049 ft | 410 kts | 154° |
| 2026-05-04 17:48 | 52.45761 | -1.74875 | 19046 ft | 411 kts | 154° |
| 2026-05-04 17:48 | 52.43131 | -1.72661 | 19030 ft | 430 kts | 154° |
| 2026-05-04 17:48 | 52.40477 | -1.70427 | 19239 ft | 441 kts | 154° |
| 2026-05-04 17:48 | 52.37733 | -1.68119 | 19404 ft | 444 kts | 154° |
| 2026-05-04 17:49 | 52.34955 | -1.66047 | 19210 ft | 439 kts | 160° |
| 2026-05-04 17:49 | 52.32063 | -1.64451 | 19072 ft | 440 kts | 164° |
| 2026-05-04 17:49 | 52.29813 | -1.63293 | 19047 ft | 440 kts | 163° |
| 2026-05-04 17:49 | 52.26893 | -1.61783 | 19044 ft | 439 kts | 163° |
| 2026-05-04 17:50 | 52.23987 | -1.60275 | 19045 ft | 438 kts | 163° |
| 2026-05-04 17:50 | 52.21082 | -1.58764 | 19047 ft | 438 kts | 163° |
| 2026-05-04 17:50 | 52.18177 | -1.57254 | 19044 ft | 438 kts | 163° |
| 2026-05-04 17:50 | 52.15303 | -1.55761 | 18616 ft | 429 kts | 163° |
| 2026-05-04 17:51 | 52.12471 | -1.54292 | 17503 ft | 427 kts | 163° |
| 2026-05-04 17:51 | 52.09666 | -1.52838 | 16275 ft | 422 kts | 163° |
| 2026-05-04 17:51 | 52.06921 | -1.51418 | 15002 ft | 418 kts | 163° |
| 2026-05-04 17:51 | 52.04164 | -1.49994 | 13764 ft | 414 kts | 164° |
| 2026-05-04 17:52 | 52.01456 | -1.48595 | 12929 ft | 398 kts | 164° |
| 2026-05-04 17:52 | 51.98903 | -1.47278 | 12611 ft | 372 kts | 163° |
| 2026-05-04 17:52 | 51.96512 | -1.46044 | 12298 ft | 350 kts | 164° |
| 2026-05-04 17:52 | 51.94220 | -1.44866 | 11662 ft | 342 kts | 164° |
| 2026-05-04 17:53 | 51.91981 | -1.43717 | 10912 ft | 337 kts | 164° |
| 2026-05-04 17:53 | 51.89757 | -1.42579 | 10204 ft | 333 kts | 165° |
| 2026-05-04 17:53 | 51.87542 | -1.41449 | 9696 ft | 333 kts | 164° |
| 2026-05-04 17:53 | 51.85351 | -1.40327 | 9261 ft | 327 kts | 164° |
| 2026-05-04 17:54 | 51.83218 | -1.39237 | 9068 ft | 327 kts | 164° |
| 2026-05-04 17:54 | 51.81031 | -1.38122 | 9020 ft | 329 kts | 164° |
| 2026-05-04 17:54 | 51.78883 | -1.37029 | 9019 ft | 326 kts | 163° |
| 2026-05-04 17:54 | 51.76789 | -1.35658 | 9018 ft | 327 kts | 154° |
| 2026-05-04 17:55 | 51.74907 | -1.33850 | 9019 ft | 328 kts | 148° |
| 2026-05-04 17:55 | 51.73014 | -1.31841 | 9023 ft | 328 kts | 148° |
| 2026-05-04 17:55 | 51.71116 | -1.29850 | 9020 ft | 328 kts | 148° |
| 2026-05-04 17:55 | 51.69177 | -1.27825 | 9020 ft | 329 kts | 148° |
| 2026-05-04 17:56 | 51.67260 | -1.25831 | 9023 ft | 329 kts | 148° |
| 2026-05-04 17:56 | 51.65466 | -1.23967 | 9021 ft | 328 kts | 148° |
| 2026-05-04 17:56 | 51.63573 | -1.22000 | 9021 ft | 328 kts | 148° |
| 2026-05-04 17:56 | 51.61651 | -1.20006 | 9021 ft | 329 kts | 148° |
| 2026-05-04 17:57 | 51.59731 | -1.18015 | 9019 ft | 328 kts | 148° |
| 2026-05-04 17:57 | 51.57840 | -1.16056 | 9020 ft | 328 kts | 148° |
| 2026-05-04 17:57 | 51.55927 | -1.14077 | 9020 ft | 327 kts | 148° |
| 2026-05-04 17:57 | 51.54145 | -1.12235 | 9021 ft | 324 kts | 148° |
| 2026-05-04 17:58 | 51.52249 | -1.10276 | 9022 ft | 325 kts | 148° |
| 2026-05-04 17:58 | 51.50345 | -1.08312 | 9021 ft | 324 kts | 149° |
| 2026-05-04 17:58 | 51.48477 | -1.06386 | 9020 ft | 323 kts | 149° |
| 2026-05-04 17:58 | 51.46608 | -1.04462 | 9020 ft | 325 kts | 148° |
| 2026-05-04 17:59 | 51.44702 | -1.02503 | 9020 ft | 326 kts | 148° |
| 2026-05-04 17:59 | 51.42794 | -1.00541 | 9018 ft | 325 kts | 148° |
| 2026-05-04 17:59 | 51.38992 | -0.96640 | 9015 ft | 323 kts | 149° |
| 2026-05-04 18:00 | 51.37098 | -0.94699 | 9014 ft | 324 kts | 149° |
| 2026-05-04 18:00 | 51.35197 | -0.92753 | 9016 ft | 324 kts | 149° |
| 2026-05-04 18:00 | 51.33295 | -0.90808 | 9019 ft | 325 kts | 148° |
| 2026-05-04 18:00 | 51.31827 | -0.89315 | 9014 ft | 327 kts | 148° |
| 2026-05-04 18:01 | 51.30245 | -0.87704 | 9021 ft | 325 kts | 148° |
| 2026-05-04 18:01 | 51.28339 | -0.85760 | 9019 ft | 325 kts | 148° |
| 2026-05-04 18:01 | 51.26431 | -0.83815 | 9016 ft | 326 kts | 148° |
| 2026-05-04 18:02 | 51.22633 | -0.79950 | 9019 ft | 327 kts | 148° |
| 2026-05-04 18:02 | 51.20713 | -0.77999 | 9020 ft | 327 kts | 148° |
| 2026-05-04 18:02 | 51.18795 | -0.76052 | 9022 ft | 326 kts | 148° |
| 2026-05-04 18:02 | 51.16878 | -0.74109 | 9021 ft | 327 kts | 148° |
| 2026-05-04 18:03 | 51.14967 | -0.72174 | 9019 ft | 326 kts | 148° |
| 2026-05-04 18:03 | 51.13047 | -0.70231 | 9018 ft | 328 kts | 148° |
| 2026-05-04 18:03 | 51.11127 | -0.68291 | 9017 ft | 327 kts | 148° |
| 2026-05-04 18:03 | 51.09206 | -0.66351 | 9018 ft | 327 kts | 148° |
| 2026-05-04 18:04 | 51.07292 | -0.64408 | 9015 ft | 325 kts | 146° |
| 2026-05-04 18:04 | 51.05630 | -0.62105 | 9015 ft | 325 kts | 132° |
| 2026-05-04 18:04 | 51.03331 | -0.55950 | 9001 ft | 328 kts | 116° |
| 2026-05-04 18:05 | 51.02465 | -0.53151 | 9002 ft | 328 kts | 117° |
| 2026-05-04 18:05 | 51.01546 | -0.50204 | 8999 ft | 328 kts | 118° |
| 2026-05-04 18:05 | 51.00694 | -0.47506 | 9002 ft | 327 kts | 117° |
| 2026-05-04 18:05 | 50.99671 | -0.44267 | 9000 ft | 328 kts | 117° |
| 2026-05-04 18:06 | 50.97639 | -0.37804 | 8998 ft | 328 kts | 117° |
| 2026-05-04 18:06 | 50.96871 | -0.35368 | 8994 ft | 328 kts | 117° |
| 2026-05-04 18:06 | 50.95867 | -0.32189 | 8993 ft | 328 kts | 117° |
| 2026-05-04 18:07 | 50.94849 | -0.28967 | 8997 ft | 327 kts | 117° |
| 2026-05-04 18:07 | 50.93827 | -0.25740 | 8995 ft | 327 kts | 117° |
| 2026-05-04 18:07 | 50.92805 | -0.22516 | 8995 ft | 328 kts | 117° |
| 2026-05-04 18:07 | 50.91781 | -0.19292 | 8944 ft | 326 kts | 117° |
| 2026-05-04 18:08 | 50.90765 | -0.16099 | 8499 ft | 323 kts | 117° |
| 2026-05-04 18:08 | 50.89755 | -0.12929 | 7799 ft | 321 kts | 117° |
| 2026-05-04 18:08 | 50.88757 | -0.09799 | 7240 ft | 315 kts | 117° |
| 2026-05-04 18:08 | 50.87919 | -0.06567 | 7052 ft | 320 kts | 101° |
| 2026-05-04 18:09 | 50.88676 | 0.00187 | 6999 ft | 321 kts | 56° |
| 2026-05-04 18:09 | 50.92215 | 0.03983 | 7000 ft | 304 kts | 9° |
| 2026-05-04 18:10 | 50.94249 | 0.03865 | 6999 ft | 285 kts | 343° |
| 2026-05-04 18:10 | 50.95990 | 0.02599 | 6998 ft | 267 kts | 331° |
| 2026-05-04 18:10 | 50.97574 | 0.01221 | 6939 ft | 253 kts | 331° |
| 2026-05-04 18:10 | 50.99084 | -0.00097 | 6808 ft | 243 kts | 331° |
| 2026-05-04 18:11 | 51.00550 | -0.01386 | 6456 ft | 241 kts | 331° |
| 2026-05-04 18:11 | 51.01965 | -0.02637 | 6119 ft | 237 kts | 331° |
| 2026-05-04 18:11 | 51.03396 | -0.03917 | 6014 ft | 240 kts | 331° |
| 2026-05-04 18:11 | 51.04852 | -0.05221 | 5999 ft | 239 kts | 331° |
| 2026-05-04 18:12 | 51.06274 | -0.06519 | 6001 ft | 239 kts | 331° |
| 2026-05-04 18:12 | 51.07701 | -0.07872 | 5995 ft | 239 kts | 321° |
| 2026-05-04 18:12 | 51.08693 | -0.09954 | 5998 ft | 241 kts | 291° |
| 2026-05-04 18:12 | 51.08876 | -0.12574 | 5999 ft | 242 kts | 259° |
| 2026-05-04 18:13 | 51.08387 | -0.15137 | 5997 ft | 243 kts | 251° |
| 2026-05-04 18:13 | 51.07829 | -0.17672 | 5999 ft | 242 kts | 251° |
| 2026-05-04 18:13 | 51.06693 | -0.22714 | 5999 ft | 243 kts | 246° |
| 2026-05-04 18:14 | 51.05939 | -0.25023 | 5999 ft | 242 kts | 241° |
| 2026-05-04 18:14 | 51.05132 | -0.27320 | 6001 ft | 242 kts | 241° |
| 2026-05-04 18:14 | 51.04310 | -0.29646 | 6000 ft | 243 kts | 241° |
| 2026-05-04 18:15 | 51.02709 | -0.34175 | 6002 ft | 243 kts | 241° |
| 2026-05-04 18:15 | 51.01321 | -0.38096 | 6002 ft | 238 kts | 240° |
| 2026-05-04 18:15 | 51.00539 | -0.40300 | 5998 ft | 221 kts | 241° |
| 2026-05-04 18:16 | 50.99826 | -0.42309 | 6026 ft | 201 kts | 241° |
| 2026-05-04 18:16 | 50.99155 | -0.44200 | 6008 ft | 200 kts | 241° |
| 2026-05-04 18:16 | 50.98463 | -0.46145 | 5995 ft | 202 kts | 241° |
| 2026-05-04 18:17 | 50.97110 | -0.49932 | 5356 ft | 198 kts | 241° |
| 2026-05-04 18:17 | 50.96512 | -0.51893 | 4870 ft | 198 kts | 259° |
| 2026-05-04 18:17 | 50.97504 | -0.55409 | 4097 ft | 182 kts | 337° |
| 2026-05-04 18:18 | 50.98721 | -0.56041 | 4015 ft | 188 kts | 346° |
| 2026-05-04 18:18 | 50.99971 | -0.56607 | 4007 ft | 186 kts | 346° |
| 2026-05-04 18:18 | 51.01219 | -0.57169 | 4008 ft | 187 kts | 346° |
| 2026-05-04 18:18 | 51.02451 | -0.57721 | 4002 ft | 186 kts | 346° |
| 2026-05-04 18:19 | 51.04902 | -0.58831 | 3423 ft | 182 kts | 346° |
| 2026-05-04 18:19 | 51.06130 | -0.58993 | 3084 ft | 174 kts | 19° |
| 2026-05-04 18:19 | 51.07042 | -0.57745 | 3015 ft | 181 kts | 57° |
| 2026-05-04 18:20 | 51.07305 | -0.57023 | 3016 ft | 180 kts | 61° |
| 2026-05-04 18:20 | 51.07863 | -0.55253 | 3015 ft | 178 kts | 63° |
| 2026-05-04 18:20 | 51.08389 | -0.53452 | 3005 ft | 179 kts | 65° |
| 2026-05-04 18:20 | 51.08890 | -0.51634 | 3006 ft | 180 kts | 66° |
| 2026-05-04 18:21 | 51.09408 | -0.49825 | 2997 ft | 179 kts | 60° |
| 2026-05-04 18:21 | 51.10049 | -0.48128 | 3004 ft | 180 kts | 58° |
| 2026-05-04 18:21 | 51.10649 | -0.46389 | 2914 ft | 179 kts | 62° |
| 2026-05-04 18:21 | 51.11210 | -0.44620 | 2776 ft | 180 kts | 66° |
| 2026-05-04 18:22 | 51.11532 | -0.42784 | 2564 ft | 166 kts | 76° |
| 2026-05-04 18:22 | 51.11732 | -0.41188 | 2522 ft | 179 kts | 77° |
| 2026-05-04 18:22 | 51.11991 | -0.39302 | 2412 ft | 162 kts | 76° |
| 2026-05-04 18:22 | 51.12216 | -0.37674 | 2332 ft | 144 kts | 75° |
| 2026-05-04 18:23 | 51.12434 | -0.36120 | 2169 ft | 142 kts | 75° |
| 2026-05-04 18:23 | 51.12649 | -0.34587 | 1999 ft | 142 kts | 75° |
| 2026-05-04 18:23 | 51.12862 | -0.33056 | 1816 ft | 140 kts | 76° |
| 2026-05-04 18:23 | 51.13074 | -0.31538 | 1639 ft | 141 kts | 76° |
| 2026-05-04 18:24 | 51.13286 | -0.30019 | 1442 ft | 142 kts | 76° |
| 2026-05-04 18:24 | 51.13498 | -0.28497 | 1248 ft | 139 kts | 76° |
| 2026-05-04 18:24 | 51.13697 | -0.27093 | 1061 ft | 142 kts | 75° |
| 2026-05-04 18:24 | 51.13910 | -0.25577 | 853 ft | 137 kts | 77° |
| 2026-05-04 18:25 | 51.14129 | -0.24074 | 627 ft | 137 kts | 77° |
| 2026-05-04 18:25 | 51.14330 | -0.22586 | 449 ft | 138 kts | 78° |
| 2026-05-04 18:25 | 51.14524 | -0.21106 | 297 ft | 136 kts | 76° |
| 2026-05-04 18:25 | 51.14735 | -0.19655 | 209 ft | 131 kts | 76° |
| 2026-05-04 18:26 | 51.14877 | -0.18691 | 212 ft | 37 kts | 63° |
| 2026-05-04 18:26 | 51.15013 | -0.18378 | 215 ft | 29 kts | 54° |
| 2026-05-04 18:26 | 51.15082 | -0.18240 | 208 ft | 0 kts | 50° |
| 2026-05-04 18:26 | 51.15113 | -0.18187 | 213 ft | 10 kts | 35° |
| 2026-05-04 18:27 | 51.15146 | -0.18192 | 209 ft | 3 kts | 339° |
| 2026-05-04 18:27 | 51.15175 | -0.18220 | 213 ft | 7 kts | 324° |
| 2026-05-04 18:27 | 51.15179 | -0.18225 | 211 ft | 0 kts | 323° |
| 2026-05-04 18:28 | 51.15182 | -0.18223 | 210 ft | 0 kts | 356° |
| 2026-05-04 18:28 | 51.15184 | -0.18220 | 209 ft | 0 kts | 17° |
| 2026-05-04 18:28 | 51.15184 | -0.18219 | 209 ft | 0 kts | 25° |
| 2026-05-04 18:29 | 51.15184 | -0.18218 | 209 ft | 0 kts | 36° |
| 2026-05-04 18:29 | 51.15196 | -0.18188 | 207 ft | 6 kts | 65° |
| 2026-05-04 18:29 | 51.15200 | -0.18171 | 209 ft | 0 kts | 70° |
| 2026-05-04 18:29 | 51.15213 | -0.18123 | 207 ft | 9 kts | 52° |
| 2026-05-04 18:30 | 51.15330 | -0.18133 | 210 ft | 14 kts | 346° |